Time;durP1;ratioP1;P1;durP2;ratioP2;P2;SDS_P1;SDS_P2;PMS_P1;PMS_P2;Temp;Humidity;BMP_temperature;BMP_pressure;BME280_temperature;BME280_humidity;BME280_pressure;Samples;Min_cycle;Max_cycle;Signal;HPM_P1;HPM_P2
2022/10/06 00:03:23;;;;;;;15.07;6.07;;;;;;;12.58;89.35;99763.81;8243709;28;20039;-80
2022/10/06 00:07:24;;;;;;;17.80;5.90;;;;;;;12.63;89.41;99760.97;8241139;28;20154;-80
2022/10/06 00:11:25;;;;;;;15.82;5.85;;;;;;;12.69;89.08;99765.16;8243741;28;20043;-80
2022/10/06 00:15:31;;;;;;;11.98;5.35;;;;;;;12.66;89.30;99754.94;8250431;28;20054;-80
2022/10/06 00:19:32;;;;;;;10.80;5.60;;;;;;;12.64;89.08;99762.56;8257576;28;20042;-80
2022/10/06 00:23:32;;;;;;;11.90;5.72;;;;;;;12.56;89.34;99772.22;8259916;28;20097;-80
2022/10/06 00:27:42;;;;;;;14.10;5.97;;;;;;;12.51;89.52;99763.41;8250708;28;20046;-80
2022/10/06 00:31:42;;;;;;;;;;;;;;;12.49;89.51;99760.19;8257466;28;20062;-80
2022/10/06 00:35:43;;;;;;;;;;;;;;;12.50;89.42;99761.81;8252486;28;20030;-80
2022/10/06 00:39:44;;;;;;;;;;;;;;;12.59;89.12;99770.78;8250750;28;19981;-80
2022/10/06 00:43:48;;;;;;;;;;;;;;;12.73;88.76;99760.75;8247705;28;19925;-80
2022/10/06 00:47:49;;;;;;;;;;;;;;;12.91;88.19;99767.88;8246784;28;19984;-80
2022/10/06 00:52:19;;;;;;;;;;;;;;;13.04;87.95;99772.44;8248072;28;20012;-80
2022/10/06 00:56:20;;;;;;;;;;;;;;;13.25;87.13;99771.97;8239162;28;19992;-80
2022/10/06 01:00:21;;;;;;;;;;;;;;;13.34;86.65;99770.09;8253594;28;19922;-81
2022/10/06 01:04:21;;;;;;;;;;;;;;;13.45;86.43;99771.44;8236973;28;19945;-81
2022/10/06 01:08:22;;;;;;;;;;;;;;;13.43;86.54;99768.25;8229975;28;19926;-80
2022/10/06 01:12:23;;;;;;;;;;;;;;;13.35;86.79;99771.72;8233500;28;19949;-80
2022/10/06 01:16:25;;;;;;;;;;;;;;;13.24;87.18;99778.50;8230406;28;19926;-80
2022/10/06 01:20:27;;;;;;;;;;;;;;;13.15;87.61;99783.06;8230713;28;20378;-80
2022/10/06 01:24:28;;;;;;;;;;;;;;;13.11;87.69;99778.25;8222993;28;20017;-80
2022/10/06 01:28:28;;;;;;;;;;;;;;;13.11;87.93;99777.44;8230475;28;19922;-80
2022/10/06 01:32:33;;;;;;;;;;;;;;;13.19;87.58;99778.63;8229124;28;19922;-80
2022/10/06 01:36:33;;;;;;;;;;;;;;;13.29;87.33;99789.22;8234579;28;19929;-80
2022/10/06 01:40:34;;;;;;;;;;;;;;;13.32;87.20;99772.34;8253847;28;19922;-81
2022/10/06 01:44:35;;;;;;;;;;;;;;;13.32;87.20;99777.78;8252688;28;20003;-80
2022/10/06 01:48:36;;;;;;;;;;;;;;;13.37;86.79;99774.94;8241279;28;19992;-80
2022/10/06 01:52:36;;;;;;;;;;;;;;;13.35;87.08;99777.13;8249413;28;20328;-80
2022/10/06 01:56:37;;;;;;;;;;;;;;;13.30;87.30;99774.56;8249269;28;19922;-80
2022/10/06 02:00:38;;;;;;;;;;;;;;;13.24;87.46;99781.22;8250863;28;19937;-80
2022/10/06 02:04:39;;;;;;;;;;;;;;;13.18;87.81;99787.88;8250897;28;19926;-80
2022/10/06 02:08:40;;;;;;;;;;;;;;;13.16;87.84;99790.09;8251423;28;20389;-80
2022/10/06 02:12:41;;;;;;;;;;;;;;;13.16;87.85;99800.97;8250061;28;20385;-80
2022/10/06 02:16:42;;;;;;;;;;;;;;;13.14;87.79;99798.53;8264319;28;19922;-80
2022/10/06 02:20:43;;;;;;;;;;;;;;;13.08;88.02;99800.53;8243996;28;19926;-80
2022/10/06 02:24:43;;;;;;;;;;;;;;;13.05;88.23;99795.75;8246063;28;19945;-80
2022/10/06 02:28:45;;;;;;;;;;;;;;;13.09;88.42;99804.88;8251262;28;20265;-80
2022/10/06 02:32:46;;;;;;;;;;;;;;;13.14;88.25;99803.16;8240445;28;19929;-80
2022/10/06 02:36:47;;;;;;;;;;;;;;;13.16;88.02;99800.97;8259366;28;19929;-80
2022/10/06 02:40:47;;;;;;;;;;;;;;;13.17;88.06;99807.97;8242480;28;19969;-80
2022/10/06 02:44:51;;;;;;;;;;;;;;;13.15;88.34;99815.63;8246954;28;19922;-80
2022/10/06 02:48:52;;;;;;;;;;;;;;;13.18;88.22;99820.41;8259443;28;19965;-80
2022/10/06 02:52:54;;;;;;;;;;;;;;;13.22;88.02;99816.00;8260126;28;19921;-80
2022/10/06 02:56:55;;;;;;;;;;;;;;;13.20;88.17;99818.22;8252294;28;20004;-80
2022/10/06 03:01:02;;;;;;;;;;;;;;;13.19;88.32;99822.03;8239172;28;19922;-80
2022/10/06 03:05:03;;;;;;;;;;;;;;;13.15;88.54;99831.88;8246836;28;20242;-80
2022/10/06 03:09:05;;;;;;;;;;;;;;;13.12;88.67;99833.28;8249024;28;20337;-80
2022/10/06 03:13:05;;;;;;;;;;;;;;;13.14;88.58;99838.41;8250102;28;20632;-80
2022/10/06 03:17:08;;;;;;;;;;;;;;;13.13;88.79;99845.75;8238246;28;21084;-80
2022/10/06 03:21:09;;;;;;;;;;;;;;;13.22;88.44;99843.13;8266649;28;19922;-80
2022/10/06 03:25:12;;;;;;;;;;;;;;;13.27;88.32;99851.13;8240733;28;19929;-80
2022/10/06 03:29:14;;;;;;;;;;;;;;;13.34;88.04;99851.47;8246429;28;20072;-80
2022/10/06 03:33:15;;;;;;;;;;;;;;;13.38;88.22;99852.47;8239157;28;19926;-80
2022/10/06 03:37:17;;;;;;;;;;;;;;;13.37;88.19;99850.88;8250675;28;19977;-80
2022/10/06 03:41:23;;;;;;;;;;;;;;;13.30;88.31;99850.50;8249230;28;20173;-80
2022/10/06 03:45:24;;;;;;;;;;;;;;;13.24;88.57;99857.97;8245790;28;19922;-80
2022/10/06 03:49:25;;;;;;;;;;;;;;;13.24;88.49;99868.81;8247894;28;19926;-81
2022/10/06 03:53:28;;;;;;;;;;;;;;;13.22;88.67;99865.59;8247520;28;20004;-80
2022/10/06 03:57:29;;;;;;;;;;;;;;;13.17;88.74;99873.03;8249802;28;19958;-81
2022/10/06 04:01:32;;;;;;;;;;;;;;;13.15;88.89;99881.50;8242491;28;19922;-80
2022/10/06 04:05:33;;;;;;;;;;;;;;;13.15;88.94;99891.56;8247840;28;19937;-80
2022/10/06 04:09:35;;;;;;;;;;;;;;;13.13;89.00;99891.84;8250166;28;20441;-80
2022/10/06 04:13:36;;;;;;;;;;;;;;;13.08;89.19;99892.75;8243074;28;20328;-80
2022/10/06 04:17:37;;;;;;;;;;;;;;;13.02;89.30;99904.81;8246919;28;19976;-80
2022/10/06 04:21:38;;;;;;;;;;;;;;;12.95;89.77;99909.06;8246036;28;19922;-80
2022/10/06 04:25:39;;;;;;;;;;;;;;;12.87;90.06;99910.56;8262264;28;19929;-80
2022/10/06 04:29:40;;;;;;;;;;;;;;;12.79;90.31;99900.47;8250828;28;19922;-80
2022/10/06 04:33:41;;;;;;;;;;;;;;;12.76;90.60;99906.47;8257729;28;19960;-80
2022/10/06 04:37:42;;;;;;;;;;;;;;;12.72;90.61;99910.91;8245372;28;19921;-80
2022/10/06 04:41:46;;;;;;;;;;;;;;;12.68;90.79;99909.91;8252297;28;19984;-80
2022/10/06 04:45:47;;;;;;;;;;;;;;;12.66;91.17;99901.25;8246456;28;19922;-79
2022/10/06 04:49:47;;;;;;;;;;;;;;;12.74;91.08;99922.25;8252635;28;20304;-80
2022/10/06 04:53:49;;;;;;;;;;;;;;;12.73;91.12;99939.59;8248253;28;19921;-80
2022/10/06 04:57:49;;;;;;;;;;;;;;;12.72;91.15;99932.56;8240470;28;19949;-80
2022/10/06 05:01:50;;;;;;;;;;;;;;;12.71;91.41;99947.22;8263256;28;20591;-80
2022/10/06 05:05:51;;;;;;;;;;;;;;;12.73;91.42;99955.88;8249609;28;20404;-80
2022/10/06 05:09:54;;;;;;;;;;;;;;;12.81;91.16;99963.28;8257849;28;19929;-80
2022/10/06 05:13:55;;;;;;;;;;;;;;;12.86;90.97;99960.47;8213706;28;19945;-80
2022/10/06 05:17:56;;;;;;;;;;;;;;;12.95;90.84;99980.34;8251749;28;20012;-80
2022/10/06 05:21:57;;;;;;;;;;;;;;;13.02;90.47;99986.16;8257296;28;19932;-80
2022/10/06 05:25:58;;;;;;;;;;;;;;;13.07;90.61;99983.34;8284309;28;19984;-80
2022/10/06 05:29:59;;;;;;;;;;;;;;;13.18;90.28;99988.56;8249027;28;19968;-80
2022/10/06 05:34:00;;;;;;;;;;;;;;;13.19;90.22;99990.19;8236298;28;19922;-80
2022/10/06 05:38:00;;;;;;;;;;;;;;;13.15;90.55;99994.63;8248365;28;19975;-80
2022/10/06 05:42:01;;;;;;;;;;;;;;;13.05;90.60;99996.41;8247729;28;19930;-81
2022/10/06 05:46:03;;;;;;;;;;;;;;;13.01;90.90;100006.22;8238109;28;19933;-80
2022/10/06 05:50:05;;;;;;;;;;;;;;;13.03;90.90;100019.50;8246639;28;20375;-80
2022/10/06 05:54:05;;;;;;;;;;;;;;;13.11;90.91;100016.09;8250751;28;19933;-80
2022/10/06 05:58:06;;;;;;;;;;;;;;;13.25;90.41;99994.38;8240930;28;19922;-80
2022/10/06 06:02:07;;;;;;;;;;;;;;;13.29;90.10;100022.50;8255331;28;19922;-80
2022/10/06 06:06:15;;;;;;;;;;;;;;;13.25;90.25;100032.38;8244821;28;19933;-80
2022/10/06 06:10:16;;;;;;;;;;;;;;;13.18;90.84;100037.38;8251486;28;19922;-80
2022/10/06 06:14:18;;;;;;;;;;;;;;;13.20;91.04;100040.63;8250569;28;19926;-80
2022/10/06 06:18:19;;;;;;;;;;;;;;;13.22;91.23;100043.84;8252416;28;19922;-80
2022/10/06 06:22:20;;;;;;;;;;;;;;;13.28;91.18;100048.03;8255925;28;20344;-80
2022/10/06 06:26:22;;;;;;;;;;;;;;;13.40;90.87;100051.03;8249203;28;19929;-80
2022/10/06 06:30:24;;;;;;;;;;;;;;;13.48;90.72;100063.91;8250218;28;19928;-80
2022/10/06 06:34:26;;;;;;;;;;;;;;;13.62;90.54;100064.66;8251246;28;19922;-80
2022/10/06 06:38:27;;;;;;;;;;;;;;;13.73;90.31;100076.09;8274119;28;19925;-80
2022/10/06 06:42:28;;;;;;;;;;;;;;;13.84;90.13;100086.44;8271140;28;19922;-81
2022/10/06 06:46:32;;;;;;;;;;;;;;;13.94;90.03;100083.47;8253018;28;19929;-80
2022/10/06 06:50:33;;;;;;;;;;;;;;;14.06;89.87;100090.28;8283932;28;20020;-80
2022/10/06 06:54:33;;;;;;;;;;;;;;;14.18;89.31;100095.94;8297485;28;19955;-80
2022/10/06 06:58:34;;;;;;;;;;;;;;;14.28;88.77;100101.13;8293886;28;20683;-79
2022/10/06 07:02:39;;;;;;;;;;;;;;;14.40;88.49;100103.31;8280645;28;20320;-80
2022/10/06 07:06:40;;;;;;;;;;;;;;;14.53;88.06;100111.41;8289993;28;20403;-80
2022/10/06 07:10:43;;;;;;;;;;;;;;;14.76;87.80;100115.69;8278522;28;19921;-80
2022/10/06 07:27:44;;;;;;;;;;;;;;;15.37;85.38;100135.81;8278124;28;20005;-80
2022/10/06 07:31:45;;;;;;;;;;;;;;;15.33;85.58;100145.75;8276366;28;19949;-80
2022/10/06 07:35:46;;;;;;;;;;;;;;;15.31;85.51;100158.84;8273041;28;20059;-80
2022/10/06 07:39:48;;;;;;;;;;;;;;;15.31;85.55;100147.97;8297346;28;19944;-80
2022/10/06 07:43:49;;;;;;;;;;;;;;;15.29;85.67;100149.38;8297128;28;20004;-80
2022/10/06 07:47:57;;;;;;;;;;;;;;;15.26;85.98;100156.28;8267791;28;19929;-80
2022/10/06 07:51:58;;;;;;;;;;;;;;;15.21;86.18;100164.56;8259550;28;20020;-80
2022/10/06 07:56:05;;;;;;;;;;;;;;;15.14;86.47;100172.38;8296171;28;19929;-80
2022/10/06 08:00:07;;;;;;;;;;;;;;;15.08;87.39;100181.78;8282144;28;19921;-80
2022/10/06 08:04:07;;;;;;;;;;;;;;;15.08;87.85;100177.16;8261813;28;19921;-80
2022/10/06 08:08:08;;;;;;;;;;;;;;;15.16;87.97;100183.75;8291737;28;19929;-80
2022/10/06 08:16:28;;;;;;;;;;;;;;;15.63;86.79;100199.34;8273559;28;19921;-80
2022/10/06 08:20:29;;;;;;;;;;;;;;;15.85;86.33;100211.28;8271221;28;20296;-80
2022/10/06 08:24:30;;;;;;;;;;;;;;;16.03;85.62;100223.81;8277354;28;19940;-80
2022/10/06 08:28:31;;;;;;;;;;;;;;;16.08;85.14;100237.28;8262999;28;19921;-79
2022/10/06 08:32:32;;;;;;;;;;;;;;;16.08;84.69;100231.81;8277658;28;19922;-80
2022/10/06 08:36:33;;;;;;;;;;;;;;;16.08;85.39;100248.16;8282982;28;19972;-80
2022/10/06 08:40:35;;;;;;;;;;;;;;;16.15;85.02;100248.50;8266624;28;20333;-81
2022/10/06 08:44:40;;;;;;;;;;;;;;;16.20;84.72;100262.00;8287471;28;19922;-80
2022/10/06 08:48:40;;;;;;;;;;;;;;;16.20;84.93;100267.44;8281545;28;20360;-80
2022/10/06 08:52:45;;;;;;;;;;;;;;;16.11;84.94;100274.81;8276615;28;19921;-80
2022/10/06 08:56:50;;;;;;;;;;;;;;;16.01;85.87;100286.00;8301008;28;19921;-80
2022/10/06 09:00:55;;;;;;;;;;;;;;;16.01;85.99;100286.00;8294069;28;19929;-81
2022/10/06 09:04:57;;;;;;;;;;;;;;;16.15;85.40;100278.50;8267100;28;20019;-80
2022/10/06 09:09:20;;;;;;;;;;;;;;;16.32;85.12;100270.34;8254895;28;20274;-80
2022/10/06 09:13:24;;;;;;;;;;;;;;;16.51;85.17;100293.78;8301217;28;19921;-81
2022/10/06 09:17:33;;;;;;;;;;;;;;;16.55;83.93;100311.13;8270066;28;19992;-80
2022/10/06 09:21:34;;;;;;;;;;;;;;;16.68;84.31;100311.00;8290976;28;20444;-80
2022/10/06 09:25:35;;;;;;;;;;;;;;;16.89;82.61;100322.09;8272860;28;19980;-81
2022/10/06 09:29:35;;;;;;;;;;;;;;;16.95;82.46;100309.88;8284787;28;19921;-81
2022/10/06 09:33:37;;;;;;;;;;;;;;;17.15;81.79;100317.41;8299824;28;20016;-80
2022/10/06 09:37:52;;;;;;;;;;;;;;;17.31;81.23;100313.06;8297898;28;19929;-80
2022/10/06 09:41:53;;;;;;;;;;;;;;;17.30;81.16;100333.28;8258049;28;20433;-79
2022/10/06 09:46:17;;;;;;;;;;;;;;;17.13;81.54;100330.56;8293634;28;19982;-80
2022/10/06 09:50:22;;;;;;;;;;;;;;;16.99;81.79;100343.59;8255536;28;19921;-80
2022/10/06 09:54:23;;;;;;;;;;;;;;;16.90;81.07;100348.25;8274860;28;20381;-80
2022/10/06 09:58:29;;;;;;;;;;;;;;;16.85;80.97;100353.88;8285790;28;19922;-80
2022/10/06 10:02:38;;;;;;;;;;;;;;;16.85;81.04;100364.78;8273475;28;19967;-80
2022/10/06 10:06:39;;;;;;;;;;;;;;;16.86;81.22;100363.66;8285059;28;20304;-80
2022/10/06 10:10:40;;;;;;;;;;;;;;;16.82;81.05;100365.41;8267582;28;19921;-80
2022/10/06 10:14:41;;;;;;;;;;;;;;;16.84;80.95;100374.09;8286071;28;20293;-81
2022/10/06 10:18:44;;;;;;;;;;;;;;;16.75;80.13;100384.19;8259190;28;19921;-80
2022/10/06 10:22:45;;;;;;;;;;;;;;;16.56;79.65;100394.53;8280503;28;19975;-80
2022/10/06 10:26:56;;;;;;;;;;;;;;;16.42;80.13;100403.66;8264356;28;19976;-80
2022/10/06 10:31:15;;;;;;;;;;;;;;;16.31;79.91;100405.06;8279828;28;19922;-80
2022/10/06 10:35:20;;;;;;;;;;;;;;;16.24;80.19;100415.59;8280009;28;20400;-80
2022/10/06 10:39:26;;;;;;;;;;;;;;;16.25;80.52;100411.75;8276595;28;20313;-80
2022/10/06 10:43:30;;;;;;;;;;;;;;;16.30;81.07;100408.88;8268613;28;19921;-79
2022/10/06 10:47:34;;;;;;;;;;;;;;;16.42;80.71;100409.09;8265543;28;19928;-79
2022/10/06 10:51:49;;;;;;;;;;;;;;;16.46;80.91;100412.78;8264526;28;19952;-78
2022/10/06 10:55:50;;;;;;;;;;;;;;;16.47;80.47;100419.84;8266360;28;19921;-78
2022/10/06 10:59:54;;;;;;;;;;;;;;;16.48;80.28;100426.94;8264028;28;20293;-79
2022/10/06 11:03:55;;;;;;;;;;;;;;;16.42;79.33;100422.72;8292144;28;19926;-79
2022/10/06 11:07:58;;;;;;;;;;;;;;;16.38;78.48;100438.13;8261400;28;19945;-79
2022/10/06 11:12:02;;;;;;;;;;;;;;;16.33;78.25;100440.19;8264213;28;19926;-79
2022/10/06 11:16:06;;;;;;;;;;;;;;;16.25;78.58;100444.47;8271812;28;19928;-79
2022/10/06 11:20:07;;;;;;;;;;;;;;;16.19;77.91;100451.16;8265466;28;20311;-79
2022/10/06 11:24:08;;;;;;;;;;;;;;;16.19;76.68;100456.63;8260031;28;19968;-79
2022/10/06 11:28:12;;;;;;;;;;;;;;;16.27;76.06;100453.16;8274616;28;19921;-79
2022/10/06 11:32:22;;;;;;;;;;;;;;;16.37;74.94;100452.88;8269679;28;19921;-78
2022/10/06 11:36:43;;;;;;;;;;;;;;;16.52;74.32;100459.00;8263313;28;19952;-78
2022/10/06 11:40:46;;;;;;;;;;;;;;;16.76;73.03;100464.91;8263504;28;19928;-79
2022/10/06 11:44:48;;;;;;;;;;;;;;;16.74;70.96;100450.78;8258068;28;19922;-79
2022/10/06 11:48:49;;;;;;;;;;;;;;;16.79;71.39;100453.34;8265585;28;19940;-79
2022/10/06 11:52:54;;;;;;;;;;;;;;;16.79;69.69;100458.81;8270345;28;20365;-79
2022/10/06 11:56:56;;;;;;;;;;;;;;;16.87;69.03;100466.19;8278838;28;19945;-78
2022/10/06 12:00:56;;;;;;;;;;;;;;;16.93;68.35;100464.94;8286925;28;19921;-79
2022/10/06 12:05:18;;;;;;;;;;;;;;;16.82;67.96;100469.06;8276351;28;19928;-79
2022/10/06 12:09:27;;;;;;;;;;;;;;;16.76;67.94;100481.28;8256558;28;20385;-78
2022/10/06 12:13:38;;;;;;;;;;;;;;;16.78;68.06;100484.47;8273129;28;19978;-79
2022/10/06 12:18:15;;;;;;;;;;;;;;;16.72;66.84;100486.53;8285319;28;19961;-77
2022/10/06 12:22:16;;;;;;;;;;;;;;;16.68;67.06;100495.69;8252317;28;19922;-79
2022/10/06 12:26:28;;;;;;;;;;;;;;;16.61;67.42;100489.88;8235849;28;19977;-79
2022/10/06 12:30:32;;;;;;;;;;;;;;;16.48;66.38;100500.56;8258334;28;19944;-79
2022/10/06 12:34:45;;;;;;;;;;;;;;;16.46;66.28;100510.97;8248192;28;20463;-78
2022/10/06 12:39:06;;;;;;;;;;;;;;;16.53;66.14;100520.63;8246922;28;19922;-79
2022/10/06 12:43:16;;;;;;;;;;;;;;;16.56;65.51;100519.97;8191695;28;20425;-80
2022/10/06 12:47:19;;;;;;;;;;;;;;;16.55;65.61;100512.94;8233961;28;19954;-79
2022/10/06 12:51:23;;;;;;;;;;;;;;;16.52;65.67;100519.00;8259180;28;19929;-78
2022/10/06 12:55:27;;;;;;;;;;;;;;;16.54;66.06;100522.22;8270841;28;19921;-79
2022/10/06 12:59:30;;;;;;;;;;;;;;;16.56;66.16;100519.97;8278515;28;19921;-80
2022/10/06 13:03:31;;;;;;;;;;;;;;;17.22;65.09;100517.03;8264017;28;20065;-80
2022/10/06 13:07:32;;;;;;;;;;;;;;;17.76;63.44;100514.03;8265463;28;19925;-80
2022/10/06 13:11:33;;;;;;;;;;;;;;;18.15;62.46;100522.81;8265495;28;20012;-80
2022/10/06 13:15:34;;;;;;;;;;;;;;;18.00;62.80;100526.06;8234839;28;19926;-79
2022/10/06 13:19:35;;;;;;;;;;;;;;;17.71;63.85;100517.75;8244453;28;19922;-80
2022/10/06 13:23:36;;;;;;;;;;;;;;;18.18;63.01;100520.59;8231481;28;19933;-80
2022/10/06 13:27:38;;;;;;;;;;;;;;;18.64;63.80;100526.09;8249043;28;20028;-80
2022/10/06 13:31:44;;;;;;;;;;;;;;;19.13;61.64;100523.78;8238913;28;19929;-80
2022/10/06 13:35:46;;;;;;;;;;;;;;;18.91;60.41;100522.91;8283349;28;20340;-80
2022/10/06 13:39:47;;;;;;;;;;;;;;;18.47;60.85;100528.84;8279247;28;19982;-80
2022/10/06 13:43:58;;;;;;;;;;;;;;;18.11;61.40;100532.81;8293830;28;19956;-79
2022/10/06 13:48:14;;;;;;;;;;;;;;;17.92;62.70;100529.63;8298393;28;19965;-80
2022/10/06 13:52:18;;;;;;;;;;;;;;;17.71;62.87;100528.69;8299484;28;19921;-79
2022/10/06 13:56:32;;;;;;;;;;;;;;;17.49;63.59;100531.53;8282167;28;19922;-79
2022/10/06 14:00:56;;;;;;;;;;;;;;;17.29;64.25;100539.19;8297886;28;19925;-80
2022/10/06 14:05:16;;;;;;;;;;;;;;;17.07;65.19;100542.03;8294061;28;20016;-80
2022/10/06 14:09:19;;;;;;;;;;;;;;;16.87;65.84;100534.41;8300316;28;19928;-80
2022/10/06 14:13:20;;;;;;;;;;;;;;;16.62;66.38;100540.56;8277004;28;19922;-80
2022/10/06 14:17:22;;;;;;;;;;;;;;;16.70;66.95;100554.28;8278624;28;19925;-80
2022/10/06 14:21:26;;;;;;;;;;;;;;;16.72;67.04;100545.75;8299909;28;19925;-79
2022/10/06 14:25:27;;;;;;;;;;;;;;;16.67;67.26;100551.34;8291177;28;19929;-79
2022/10/06 14:29:28;;;;;;;;;;;;;;;16.65;67.51;100550.88;8281296;28;19921;-80
2022/10/06 14:33:29;;;;;;;;;;;;;;;16.59;67.93;100552.13;8288786;28;19922;-79
2022/10/06 14:37:29;;;;;;;;;;;;;;;16.62;68.20;100551.47;8286405;28;19922;-80
2022/10/06 14:41:30;;;;;;;;;;;;;;;16.60;67.96;100559.19;8287109;28;19921;-80
2022/10/06 14:45:32;;;;;;;;;;;;;;;16.54;68.01;100555.75;8289731;28;19928;-79
2022/10/06 14:49:33;;;;;;;;;;;;;;;16.48;67.89;100562.47;8275434;28;19926;-79
2022/10/06 14:53:35;;;;;;;;;;;;;;;16.41;67.85;100562.91;8284834;28;20005;-79
2022/10/06 14:57:36;;;;;;;;;;;;;;;16.35;67.72;100575.03;8254569;28;19929;-79
2022/10/06 15:01:38;;;;;;;;;;;;;;;16.35;68.18;100575.03;8259264;28;20277;-80
2022/10/06 15:08:08;;;;;;;;;;;;;;;16.32;68.07;100570.22;8265690;28;20012;-80
2022/10/06 15:10:08;;;;;;;;;;;;;;;16.21;68.39;100574.31;8398286;28;19916;-78
2022/10/06 15:14:09;;;;;;;;;;;;;;;16.15;68.56;100580.19;8391396;28;19979;-79
2022/10/06 15:18:10;;;;;;;;;;;;;;;16.03;69.41;100578.03;8391398;28;20275;-79
2022/10/06 15:22:11;;;;;;;;;;;;;;;15.92;69.39;100576.66;8390600;28;19977;-79
2022/10/06 15:30:30;;;;;;;;;;;;;;;15.78;70.73;100586.78;8383592;28;19925;-79
2022/10/06 15:34:33;;;;;;;;;;;;;;;15.68;71.31;100587.03;8357960;28;20059;-79
2022/10/06 15:38:35;;;;;;;;;;;;;;;15.52;72.41;100600.97;8357906;28;20415;-79
2022/10/06 15:42:35;;;;;;;;;;;;;;;15.36;73.48;100607.81;8357443;28;19931;-80
2022/10/06 15:46:39;;;;;;;;;;;;;;;15.26;74.04;100607.22;8371599;28;19926;-79
2022/10/06 15:50:40;;;;;;;;;;;;;;;15.16;74.41;100608.25;8357265;28;19967;-79
2022/10/06 15:54:44;;;;;;;;;;;;;;;15.00;74.85;100620.53;8357193;28;19925;-79
2022/10/06 15:58:47;;;;;;;;;;;;;;;14.76;76.17;100621.50;8357777;28;19933;-79
2022/10/06 16:02:48;;;;;;;;;;;;;;;14.58;77.06;100611.50;8356861;28;19925;-79
2022/10/06 16:06:52;;;;;;;;;;;;;;;14.41;77.59;100613.97;8362730;28;20323;-79
2022/10/06 16:10:54;;;;;;;;;;;;;;;14.22;78.64;100621.31;8389495;28;19925;-79
2022/10/06 16:14:55;;;;;;;;;;;;;;;14.03;79.05;100617.78;8389557;28;20010;-79
2022/10/06 16:18:56;;;;;;;;;;;;;;;13.81;80.05;100627.34;8381486;28;19929;-79
2022/10/06 16:22:57;;;;;;;;;;;;;;;13.61;81.25;100633.06;8367765;28;19979;-79
2022/10/06 16:26:58;;;;;;;;;;;;;;;13.44;81.59;100638.16;8370216;28;19958;-80
2022/10/06 16:30:59;;;;;;;;;;;;;;;13.28;81.92;100642.94;8365972;28;19929;-80
2022/10/06 16:35:00;;;;;;;;;;;;;;;13.11;82.41;100634.47;8367629;28;20067;-79
2022/10/06 16:39:01;;;;;;;;;;;;;;;12.96;82.86;100646.25;8372721;28;19932;-82
2022/10/06 16:43:02;;;;;;;;;;;;;;;12.82;83.14;100648.03;8368740;28;19931;-79
2022/10/06 16:47:03;;;;;;;;;;;;;;;12.67;83.14;100650.88;8368028;28;19929;-80
2022/10/06 16:51:08;;;;;;;;;;;;;;;12.53;83.28;100655.34;8331355;28;19937;-81
2022/10/06 16:55:08;;;;;;;;;;;;;;;12.41;83.62;100657.63;8369427;28;19929;-81
2022/10/06 16:59:28;;;;;;;;;;;;;;;12.30;83.79;100672.31;8349130;28;19925;-81
2022/10/06 17:03:28;;;;;;;;;;;;;;;12.15;84.12;100675.97;8367015;28;20284;-81
2022/10/06 17:07:31;;;;;;;;;;;;;;;12.04;84.38;100675.22;8359234;28;19925;-80
2022/10/06 17:11:32;;;;;;;;;;;;;;;11.97;84.64;100680.13;8357499;28;19931;-80
2022/10/06 17:15:33;;;;;;;;;;;;;;;11.88;84.62;100687.22;8334861;28;19929;-80
2022/10/06 17:19:34;;;;;;;;;;;;;;;11.77;84.75;100696.47;8355219;28;19935;-80
2022/10/06 17:23:35;;;;;;;;;;;;;;;11.66;84.97;100711.91;8295340;28;19932;-80
2022/10/06 17:27:36;;;;;;;;;;;;;;;11.60;85.19;100706.78;8329877;28;20397;-80
2022/10/06 17:31:38;;;;;;;;;;;;;;;11.52;85.14;100699.25;8327603;28;20360;-80
2022/10/06 17:35:39;;;;;;;;;;;;;;;11.43;85.17;100702.50;8332741;28;20175;-80
2022/10/06 17:39:40;;;;;;;;;;;;;;;11.34;85.33;100701.47;8365544;28;19931;-80
2022/10/06 17:43:41;;;;;;;;;;;;;;;11.30;85.34;100703.09;8363024;28;20405;-80
2022/10/06 17:47:42;;;;;;;;;;;;;;;11.26;85.63;100706.63;8364454;28;19924;-80
2022/10/06 17:51:46;;;;;;;;;;;;;;;11.17;85.79;100703.66;8377690;28;19932;-80
2022/10/06 17:55:48;;;;;;;;;;;;;;;11.09;85.67;100712.34;8368776;28;19932;-80
2022/10/06 17:59:49;;;;;;;;;;;;;;;11.03;85.72;100708.03;8364624;28;19924;-80
2022/10/06 18:03:54;;;;;;;;;;;;;;;10.97;85.97;100719.91;8364796;28;19924;-79
2022/10/06 18:07:57;;;;;;;;;;;;;;;10.87;86.14;100719.94;8364615;28;20390;-80
2022/10/06 18:11:59;;;;;;;;;;;;;;;10.80;86.35;100713.97;8363514;28;20321;-80
2022/10/06 18:16:00;;;;;;;;;;;;;;;10.76;86.28;100723.72;8364636;28;19925;-80
2022/10/06 18:20:02;;;;;;;;;;;;;;;10.69;86.42;100723.16;8358207;28;19925;-80
2022/10/06 18:24:09;;;;;;;;;;;;;;;10.61;86.40;100721.00;8367755;28;19932;-80
2022/10/06 18:28:11;;;;;;;;;;;;;;;10.50;86.47;100726.41;8368361;28;19933;-80
2022/10/06 18:32:12;;;;;;;;;;;;;;;10.42;86.56;100729.63;8351493;28;20401;-80
2022/10/06 18:36:13;;;;;;;;;;;;;;;10.39;86.56;100730.16;8366446;28;20348;-80
2022/10/06 18:40:14;;;;;;;;;;;;;;;10.32;86.55;100729.63;8362371;28;19929;-80
2022/10/06 18:48:53;;;;;;;;;;;;;;;10.25;86.62;100723.69;8363516;28;19968;-80
2022/10/06 18:48:55;;;;;;;;;;;;;;;10.20;86.86;100731.78;8366006;28;19925;-80
2022/10/06 18:52:56;;;;;;;;;;;;;;;10.13;86.84;100725.78;8359635;28;19924;-80
2022/10/06 18:56:57;;;;;;;;;;;;;;;10.08;86.85;100733.84;8360756;28;20531;-80
2022/10/06 19:01:02;;;;;;;;;;;;;;;10.04;86.89;100738.16;8290153;28;20313;-79
2022/10/06 19:05:03;;;;;;;;;;;;;;;9.99;87.00;100746.25;8360873;28;19931;-79
2022/10/06 19:09:05;;;;;;;;;;;;;;;9.94;86.97;100748.94;8323016;28;19979;-80
2022/10/06 19:13:07;;;;;;;;;;;;;;;9.93;87.24;100752.69;8339480;28;19925;-80
2022/10/06 19:17:12;;;;;;;;;;;;;;;9.88;87.02;100760.78;8351146;28;20897;-80
2022/10/06 19:21:13;;;;;;;;;;;;;;;9.80;87.14;100754.00;8362690;28;19928;-80
2022/10/06 19:25:17;;;;;;;;;;;;;;;9.73;87.27;100759.63;8322314;28;19929;-79
2022/10/06 19:29:22;;;;;;;;;;;;;;;9.66;87.47;100759.06;8357026;28;19925;-79
2022/10/06 19:33:25;;;;;;;;;;;;;;;9.63;87.37;100764.16;8322993;28;20409;-80
2022/10/06 19:37:27;;;;;;;;;;;;;;;9.59;87.61;100769.25;8362038;28;19929;-80
2022/10/06 19:45:56;;;;;;;;;;;;;;;9.48;88.02;100767.59;8356679;28;20275;-80
2022/10/06 19:49:58;;;;;;;;;;;;;;;9.40;87.85;100776.19;8314170;28;20004;-80
2022/10/06 19:53:59;;;;;;;;;;;;;;;9.39;87.96;100779.94;8347356;28;19925;-79
2022/10/06 19:58:00;;;;;;;;;;;;;;;9.35;87.97;100773.44;8335787;28;19931;-80
2022/10/06 20:02:02;;;;;;;;;;;;;;;9.29;88.03;100769.09;8369817;28;19932;-79
2022/10/06 20:06:04;;;;;;;;;;;;;;;9.24;88.00;100774.44;8371809;28;19951;-80
2022/10/06 20:10:05;;;;;;;;;;;;;;;9.20;87.99;100776.81;8320075;28;20436;-80
2022/10/06 20:14:08;;;;;;;;;;;;;;;9.14;88.17;100782.47;8348967;28;20313;-80
2022/10/06 20:18:08;;;;;;;;;;;;;;;9.07;88.08;100779.16;8334876;28;19933;-80
2022/10/06 20:22:09;;;;;;;;;;;;;;;9.02;88.13;100784.53;8338442;28;20484;-80
2022/10/06 20:26:11;;;;;;;;;;;;;;;8.96;88.12;100790.94;8342472;28;20383;-80
2022/10/06 20:30:12;;;;;;;;;;;;;;;8.92;88.02;100789.81;8347310;28;19925;-79
2022/10/06 20:34:14;;;;;;;;;;;;;;;8.82;87.90;100786.00;8342884;28;20405;-80
2022/10/06 20:40:37;;;;;;;;;;;;;;;8.75;88.02;100779.16;8309794;28;19925;-80
2022/10/06 20:42:35;;;;;;;;;;;;;;;8.69;88.11;100788.28;8332213;28;19929;-80
2022/10/06 20:46:37;;;;;;;;;;;;;;;8.62;88.35;100788.47;8332568;28;19971;-80
2022/10/06 20:50:38;;;;;;;;;;;;;;;8.57;88.27;100796.50;8349290;28;19933;-79
2022/10/06 20:54:38;;;;;;;;;;;;;;;8.52;88.23;100791.06;8333729;28;19925;-80
2022/10/06 20:58:40;;;;;;;;;;;;;;;8.47;88.32;100799.09;8343004;28;19925;-79
2022/10/06 21:02:40;;;;;;;;;;;;;;;8.43;88.43;100792.59;8335494;28;20280;-80
2022/10/06 21:06:41;;;;;;;;;;;;;;;8.41;88.36;100794.72;8342217;28;20019;-79
2022/10/06 21:10:42;;;;;;;;;;;;;;;8.37;88.51;100793.59;8351577;28;19951;-80
2022/10/06 21:14:43;;;;;;;;;;;;;;;8.35;88.34;100793.06;8368815;28;20267;-80
2022/10/06 21:18:45;;;;;;;;;;;;;;;8.28;88.50;100797.78;8364690;28;20305;-80